Louisville International Standiford Field
KSDF : now visible

Airfield :











YOU CAN JOIN US ON...

 
LOGIN :

Register | Disclaimer

   EN    FR    IT 

 









Legend :    VFR   Marginal VFR   IFR   Intensive IFR   Very Intensive IFR
Visi :
Ceiling :
>= 8 km
>= 3000ft
5 to 8 km
1000 to 3000 ft
1500m to 5 km
500 to 1000 ft
800 to 1500m
200 to 500 ft
< 800m
< 200 ft
Symbols :   Thunderstorms  Fog  Heavy snow  Heavy precipitations  Wind > 20 kt







- Airport Elevation : 501 ft
- IATA code : SDF


KSDF - Louisville International Standiford Field

CURRENT METAR :
  • 192156Z 10010KT 10SM OVC180 03/M06 A3043 RMK AO2 SLP309 T00331056

EXPIRED METARs :
  • 192056Z 07010KT 10SM OVC200 04/M07 A3045 RMK AO2 SLP316 T00391067 56028
  • 191956Z 07007KT 10SM FEW150 OVC200 04/M07 A3048 RMK AO2 SLP325 T00391072

TAF KSDF
Valid from the 19 at 18:00 until the 21 at 00:00 UTC


191722Z 1918/2024 08010KT P6SM OVC100
FM200200 06008KT 5SM -RASN BR OVC040
FM200500 06009G17KT 5SM -RA BR OVC017
FM200700 07012G20KT 5SM -RA BR OVC008
FM201300 12008KT 4SM -RA BR OVC007
FM201700 19013G19KT 6SM -SHRA OVC012
KZID FIR / North America



MET'MAP, your aeronautical weather chart ! - Copyright ORBIFLY December 2007 - Disclaimer

ORBIFLY MET'MAP TEAM :

Programming & Development : Alexandra Zaïnal
Concept & Development : Baudouin d'Aumeries
Co-Development & Prog : Marc-Olivier Méhu
Technical & hardware support : Manuel Goepfert

Contact : metmap@orbifly.com




SOURCES & CREDITS :

   NOAA       Earth
Advisory